sensor_id;sensor_type;location;lat;lon;timestamp;pressure;altitude;pressure_sealevel;temperature;humidity
64853;BME280;56050;55.558;-4.644;2023-03-23T00:02:11;98365.78;;;9.68;68.43
64853;BME280;56050;55.558;-4.644;2023-03-23T00:04:36;98363.38;;;9.70;68.48
64853;BME280;56050;55.558;-4.644;2023-03-23T00:07:02;98355.66;;;9.72;68.56
64853;BME280;56050;55.558;-4.644;2023-03-23T00:09:28;98368.66;;;9.73;68.39
64853;BME280;56050;55.558;-4.644;2023-03-23T00:11:55;98377.78;;;9.76;68.39
64853;BME280;56050;55.558;-4.644;2023-03-23T00:14:31;98368.53;;;9.77;68.37
64853;BME280;56050;55.558;-4.644;2023-03-23T00:17:07;98378.09;;;9.78;68.39
64853;BME280;56050;55.558;-4.644;2023-03-23T00:19:35;98380.78;;;9.78;68.40
64853;BME280;56050;55.558;-4.644;2023-03-23T00:22:10;98380.34;;;9.79;68.35
64853;BME280;56050;55.558;-4.644;2023-03-23T00:24:35;98389.91;;;9.80;68.37
64853;BME280;56050;55.558;-4.644;2023-03-23T00:27:01;98387.22;;;9.80;68.35
64853;BME280;56050;55.558;-4.644;2023-03-23T00:29:28;98389.91;;;9.80;68.34
64853;BME280;56050;55.558;-4.644;2023-03-23T00:31:53;98394.22;;;9.78;68.34
64853;BME280;56050;55.558;-4.644;2023-03-23T00:34:24;98396.91;;;9.78;68.28
64853;BME280;56050;55.558;-4.644;2023-03-23T00:36:52;98394.66;;;9.76;68.37
64853;BME280;56050;55.558;-4.644;2023-03-23T00:39:22;98400.78;;;9.77;68.40
64853;BME280;56050;55.558;-4.644;2023-03-23T00:41:50;98400.34;;;9.78;68.31
64853;BME280;56050;55.558;-4.644;2023-03-23T00:44:15;98410.69;;;9.80;68.30
64853;BME280;56050;55.558;-4.644;2023-03-23T00:46:47;98406.03;;;9.80;68.12
64853;BME280;56050;55.558;-4.644;2023-03-23T00:49:20;98412.16;;;9.81;68.12
64853;BME280;56050;55.558;-4.644;2023-03-23T00:51:52;98415.50;;;9.85;68.07
64853;BME280;56050;55.558;-4.644;2023-03-23T00:54:19;98421.00;;;9.81;68.06
64853;BME280;56050;55.558;-4.644;2023-03-23T00:56:45;98431.84;;;9.78;68.16
64853;BME280;56050;55.558;-4.644;2023-03-23T00:59:11;98424.69;;;9.75;68.19
64853;BME280;56050;55.558;-4.644;2023-03-23T01:01:36;98431.25;;;9.74;68.15
64853;BME280;56050;55.558;-4.644;2023-03-23T01:04:02;98449.31;;;9.73;68.23
64853;BME280;56050;55.558;-4.644;2023-03-23T01:06:35;98445.09;;;9.72;68.29
64853;BME280;56050;55.558;-4.644;2023-03-23T01:09:05;98450.06;;;9.74;68.24
64853;BME280;56050;55.558;-4.644;2023-03-23T01:11:31;98453.94;;;9.73;68.17
64853;BME280;56050;55.558;-4.644;2023-03-23T01:13:57;98457.81;;;9.72;68.25
64853;BME280;56050;55.558;-4.644;2023-03-23T01:16:23;98469.75;;;9.71;68.33
64853;BME280;56050;55.558;-4.644;2023-03-23T01:18:49;98474.81;;;9.69;68.24
64853;BME280;56050;55.558;-4.644;2023-03-23T01:21:16;98467.91;;;9.68;68.22
64853;BME280;56050;55.558;-4.644;2023-03-23T01:23:43;98469.09;;;9.67;68.26
64853;BME280;56050;55.558;-4.644;2023-03-23T01:26:14;98463.72;;;9.67;68.17
64853;BME280;56050;55.558;-4.644;2023-03-23T01:28:41;98469.84;;;9.67;68.17
64853;BME280;56050;55.558;-4.644;2023-03-23T01:31:09;98474.16;;;9.65;68.01
64853;BME280;56050;55.558;-4.644;2023-03-23T01:33:37;98471.16;;;9.63;67.91
64853;BME280;56050;55.558;-4.644;2023-03-23T01:36:04;98485.16;;;9.58;67.82
64853;BME280;56050;55.558;-4.644;2023-03-23T01:38:30;98484.81;;;9.56;67.90
64853;BME280;56050;55.558;-4.644;2023-03-23T01:40:56;98487.97;;;9.54;67.77
64853;BME280;56050;55.558;-4.644;2023-03-23T01:43:21;98497.19;;;9.53;67.74
64853;BME280;56050;55.558;-4.644;2023-03-23T01:45:47;98507.22;;;9.53;67.63
64853;BME280;56050;55.558;-4.644;2023-03-23T01:48:26;98510.31;;;9.51;67.71
64853;BME280;56050;55.558;-4.644;2023-03-23T01:51:09;98508.81;;;9.50;67.65
64853;BME280;56050;55.558;-4.644;2023-03-23T01:53:43;98513.44;;;9.50;67.61
64853;BME280;56050;55.558;-4.644;2023-03-23T01:56:12;98518.81;;;9.50;67.51
64853;BME280;56050;55.558;-4.644;2023-03-23T01:58:40;98517.31;;;9.49;67.57
64853;BME280;56050;55.558;-4.644;2023-03-23T02:01:09;98518.06;;;9.49;67.63
64853;BME280;56050;55.558;-4.644;2023-03-23T02:03:38;98525.69;;;9.51;67.53
64853;BME280;56050;55.558;-4.644;2023-03-23T02:06:04;98530.66;;;9.52;67.62
64853;BME280;56050;55.558;-4.644;2023-03-23T02:08:31;98526.75;;;9.53;67.48
64853;BME280;56050;55.558;-4.644;2023-03-23T02:10:58;98529.13;;;9.51;67.58
64853;BME280;56050;55.558;-4.644;2023-03-23T02:13:24;98537.63;;;9.50;67.54
64853;BME280;56050;55.558;-4.644;2023-03-23T02:21:45;98541.84;;;9.38;67.62
64853;BME280;56050;55.558;-4.644;2023-03-23T02:26:44;98546.13;;;9.35;67.58
64853;BME280;56050;55.558;-4.644;2023-03-23T02:37:44;98538.28;;;9.28;67.65
64853;BME280;56050;55.558;-4.644;2023-03-23T02:40:24;98536.78;;;9.27;67.60
64853;BME280;56050;55.558;-4.644;2023-03-23T02:42:53;98536.34;;;9.29;67.57
64853;BME280;56050;55.558;-4.644;2023-03-23T02:45:21;98533.25;;;9.30;67.50
64853;BME280;56050;55.558;-4.644;2023-03-23T02:47:51;98546.25;;;9.32;67.58
64853;BME280;56050;55.558;-4.644;2023-03-23T02:50:20;98540.41;;;9.33;67.40
64853;BME280;56050;55.558;-4.644;2023-03-23T02:52:48;98544.31;;;9.32;67.41
64853;BME280;56050;55.558;-4.644;2023-03-23T02:55:16;98545.78;;;9.33;67.51
64853;BME280;56050;55.558;-4.644;2023-03-23T02:57:44;98544.72;;;9.31;67.43
64853;BME280;56050;55.558;-4.644;2023-03-23T03:00:12;98541.41;;;9.27;67.57
64853;BME280;56050;55.558;-4.644;2023-03-23T03:02:59;98542.56;;;9.26;67.62
64853;BME280;56050;55.558;-4.644;2023-03-23T03:11:08;98539.13;;;9.25;67.66
64853;BME280;56050;55.558;-4.644;2023-03-23T03:16:31;98533.13;;;9.21;67.70
64853;BME280;56050;55.558;-4.644;2023-03-23T03:19:00;98535.91;;;9.18;67.79
64853;BME280;56050;55.558;-4.644;2023-03-23T03:21:30;98532.16;;;9.15;67.85
64853;BME280;56050;55.558;-4.644;2023-03-23T03:24:00;98531.41;;;9.15;67.86
64853;BME280;56050;55.558;-4.644;2023-03-23T03:26:31;98528.31;;;9.16;67.82
64853;BME280;56050;55.558;-4.644;2023-03-23T03:29:00;98530.13;;;9.19;67.73
64853;BME280;56050;55.558;-4.644;2023-03-23T03:31:28;98527.31;;;9.23;67.92
64853;BME280;56050;55.558;-4.644;2023-03-23T03:33:54;98530.34;;;9.25;67.72
64853;BME280;56050;55.558;-4.644;2023-03-23T03:36:23;98518.41;;;9.26;67.70
64853;BME280;56050;55.558;-4.644;2023-03-23T03:38:51;98514.53;;;9.27;67.76
64853;BME280;56050;55.558;-4.644;2023-03-23T03:41:17;98524.84;;;9.28;67.58
64853;BME280;56050;55.558;-4.644;2023-03-23T03:43:43;98523.66;;;9.29;67.50
64853;BME280;56050;55.558;-4.644;2023-03-23T03:46:09;98524.44;;;9.30;67.66
64853;BME280;56050;55.558;-4.644;2023-03-23T03:48:35;98527.88;;;9.30;67.49
64853;BME280;56050;55.558;-4.644;2023-03-23T03:51:00;98515.59;;;9.29;67.46
64853;BME280;56050;55.558;-4.644;2023-03-23T03:53:27;98522.59;;;9.27;67.46
64853;BME280;56050;55.558;-4.644;2023-03-23T03:55:53;98525.38;;;9.23;67.60
64853;BME280;56050;55.558;-4.644;2023-03-23T03:58:22;98531.63;;;9.20;67.65
64853;BME280;56050;55.558;-4.644;2023-03-23T04:00:48;98530.53;;;9.18;67.61
64853;BME280;56050;55.558;-4.644;2023-03-23T04:03:14;98540.13;;;9.19;67.63
64853;BME280;56050;55.558;-4.644;2023-03-23T04:05:41;98543.56;;;9.19;67.72
64853;BME280;56050;55.558;-4.644;2023-03-23T04:08:07;98542.34;;;9.20;67.92
64853;BME280;56050;55.558;-4.644;2023-03-23T04:10:32;98537.66;;;9.24;67.65
64853;BME280;56050;55.558;-4.644;2023-03-23T04:12:58;98543.34;;;9.26;67.69
64853;BME280;56050;55.558;-4.644;2023-03-23T04:15:24;98540.53;;;9.30;67.66
64853;BME280;56050;55.558;-4.644;2023-03-23T04:17:50;98537.31;;;9.35;67.87
64853;BME280;56050;55.558;-4.644;2023-03-23T04:20:16;98545.28;;;9.38;67.84
64853;BME280;56050;55.558;-4.644;2023-03-23T04:22:44;98536.78;;;9.40;67.82
64853;BME280;56050;55.558;-4.644;2023-03-23T04:25:11;98542.59;;;9.38;67.67
64853;BME280;56050;55.558;-4.644;2023-03-23T04:27:39;98538.50;;;9.34;67.79
64853;BME280;56050;55.558;-4.644;2023-03-23T04:30:12;98535.94;;;9.30;67.76
64853;BME280;56050;55.558;-4.644;2023-03-23T04:32:39;98544.84;;;9.27;67.80
64853;BME280;56050;55.558;-4.644;2023-03-23T04:35:12;98546.47;;;9.25;67.75
64853;BME280;56050;55.558;-4.644;2023-03-23T04:37:39;98553.75;;;9.24;67.82
64853;BME280;56050;55.558;-4.644;2023-03-23T04:40:07;98555.69;;;9.24;67.84
64853;BME280;56050;55.558;-4.644;2023-03-23T04:42:36;98550.72;;;9.22;67.74
64853;BME280;56050;55.558;-4.644;2023-03-23T04:45:03;98566.53;;;9.20;67.81
64853;BME280;56050;55.558;-4.644;2023-03-23T04:47:32;98559.69;;;9.19;67.83
64853;BME280;56050;55.558;-4.644;2023-03-23T04:49:59;98566.53;;;9.20;67.85
64853;BME280;56050;55.558;-4.644;2023-03-23T04:52:27;98570.41;;;9.19;67.86
64853;BME280;56050;55.558;-4.644;2023-03-23T04:54:54;98568.47;;;9.20;67.75
64853;BME280;56050;55.558;-4.644;2023-03-23T04:57:21;98570.41;;;9.19;67.78
64853;BME280;56050;55.558;-4.644;2023-03-23T04:59:47;98568.47;;;9.20;67.68
64853;BME280;56050;55.558;-4.644;2023-03-23T05:02:13;98575.34;;;9.21;67.73
64853;BME280;56050;55.558;-4.644;2023-03-23T05:04:39;98575.66;;;9.23;67.74
64853;BME280;56050;55.558;-4.644;2023-03-23T05:07:07;98579.34;;;9.29;67.73
64853;BME280;56050;55.558;-4.644;2023-03-23T05:09:33;98570.84;;;9.30;67.55
64853;BME280;56050;55.558;-4.644;2023-03-23T05:12:09;98568.50;;;9.32;67.45
64853;BME280;56050;55.558;-4.644;2023-03-23T05:14:35;98575.34;;;9.33;67.45
64853;BME280;56050;55.558;-4.644;2023-03-23T05:17:01;98576.88;;;9.34;67.44
64853;BME280;56050;55.558;-4.644;2023-03-23T05:19:26;98582.56;;;9.36;67.31
64853;BME280;56050;55.558;-4.644;2023-03-23T05:21:53;98576.00;;;9.37;67.36
64853;BME280;56050;55.558;-4.644;2023-03-23T05:24:19;98567.63;;;9.35;67.38
64853;BME280;56050;55.558;-4.644;2023-03-23T05:26:44;98569.56;;;9.35;67.33
64853;BME280;56050;55.558;-4.644;2023-03-23T05:29:13;98576.88;;;9.34;67.19
64853;BME280;56050;55.558;-4.644;2023-03-23T05:31:39;98571.59;;;9.31;67.31
64853;BME280;56050;55.558;-4.644;2023-03-23T05:34:05;98582.03;;;9.29;67.40
64853;BME280;56050;55.558;-4.644;2023-03-23T05:36:30;98579.03;;;9.27;67.44
64853;BME280;56050;55.558;-4.644;2023-03-23T05:38:56;98571.81;;;9.24;67.29
64853;BME280;56050;55.558;-4.644;2023-03-23T05:41:21;98574.59;;;9.20;67.18
64853;BME280;56050;55.558;-4.644;2023-03-23T05:43:48;98575.03;;;9.19;67.42
64853;BME280;56050;55.558;-4.644;2023-03-23T05:46:13;98579.66;;;9.18;67.45
64853;BME280;56050;55.558;-4.644;2023-03-23T05:48:39;98574.28;;;9.18;67.40
64853;BME280;56050;55.558;-4.644;2023-03-23T05:51:05;98572.75;;;9.17;67.31
64853;BME280;56050;55.558;-4.644;2023-03-23T05:53:30;98570.53;;;9.16;67.40
64853;BME280;56050;55.558;-4.644;2023-03-23T05:56:00;98574.38;;;9.15;67.43
64853;BME280;56050;55.558;-4.644;2023-03-23T05:58:26;98564.84;;;9.14;67.29
64853;BME280;56050;55.558;-4.644;2023-03-23T06:00:51;98556.44;;;9.12;67.35
64853;BME280;56050;55.558;-4.644;2023-03-23T06:03:17;98555.69;;;9.11;67.43
64853;BME280;56050;55.558;-4.644;2023-03-23T06:05:43;98553.44;;;9.10;67.41
64853;BME280;56050;55.558;-4.644;2023-03-23T06:08:11;98557.72;;;9.07;67.33
64853;BME280;56050;55.558;-4.644;2023-03-23T06:10:37;98552.78;;;9.06;67.44
64853;BME280;56050;55.558;-4.644;2023-03-23T06:13:04;98558.56;;;9.04;67.38
64853;BME280;56050;55.558;-4.644;2023-03-23T06:15:30;98552.88;;;9.02;67.49
64853;BME280;56050;55.558;-4.644;2023-03-23T06:18:01;98562.88;;;9.02;67.50
64853;BME280;56050;55.558;-4.644;2023-03-23T06:20:28;98561.34;;;9.01;67.44
64853;BME280;56050;55.558;-4.644;2023-03-23T06:22:54;98572.53;;;8.99;67.44
64853;BME280;56050;55.558;-4.644;2023-03-23T06:25:19;98571.03;;;8.98;67.46
64853;BME280;56050;55.558;-4.644;2023-03-23T06:27:45;98555.75;;;8.95;67.51
64853;BME280;56050;55.558;-4.644;2023-03-23T06:30:12;98562.34;;;8.94;67.46
64853;BME280;56050;55.558;-4.644;2023-03-23T06:32:39;98560.41;;;8.95;67.50
64853;BME280;56050;55.558;-4.644;2023-03-23T06:35:05;98564.25;;;8.94;67.43
64853;BME280;56050;55.558;-4.644;2023-03-23T06:37:34;98560.81;;;8.93;67.44
64853;BME280;56050;55.558;-4.644;2023-03-23T06:40:00;98562.34;;;8.94;67.39
64853;BME280;56050;55.558;-4.644;2023-03-23T06:42:26;98561.56;;;8.94;67.40
64853;BME280;56050;55.558;-4.644;2023-03-23T06:44:51;98557.28;;;8.96;67.33
64853;BME280;56050;55.558;-4.644;2023-03-23T06:47:17;98561.03;;;8.99;67.19
64853;BME280;56050;55.558;-4.644;2023-03-23T06:49:43;98555.66;;;8.99;67.27
64853;BME280;56050;55.558;-4.644;2023-03-23T06:52:08;98570.94;;;9.02;67.36
64853;BME280;56050;55.558;-4.644;2023-03-23T06:54:33;98573.06;;;9.07;67.21
64853;BME280;56050;55.558;-4.644;2023-03-23T06:56:59;98574.81;;;9.13;67.25
64853;BME280;56050;55.558;-4.644;2023-03-23T06:59:24;98578.47;;;9.19;67.08
64853;BME280;56050;55.558;-4.644;2023-03-23T07:01:50;98570.19;;;9.26;66.99
64853;BME280;56050;55.558;-4.644;2023-03-23T07:04:15;98585.38;;;9.33;67.05
64853;BME280;56050;55.558;-4.644;2023-03-23T07:06:41;98585.25;;;9.36;67.04
64853;BME280;56050;55.558;-4.644;2023-03-23T07:09:07;98580.84;;;9.42;67.02
64853;BME280;56050;55.558;-4.644;2023-03-23T07:11:33;98584.81;;;9.51;66.85
64853;BME280;56050;55.558;-4.644;2023-03-23T07:13:58;98580.09;;;9.55;66.63
64853;BME280;56050;55.558;-4.644;2023-03-23T07:16:23;98579.22;;;9.58;66.59
64853;BME280;56050;55.558;-4.644;2023-03-23T07:18:49;98589.44;;;9.63;66.67
64853;BME280;56050;55.558;-4.644;2023-03-23T07:21:15;98582.75;;;9.67;66.54
64853;BME280;56050;55.558;-4.644;2023-03-23T07:23:40;98586.53;;;9.70;66.58
64853;BME280;56050;55.558;-4.644;2023-03-23T07:26:07;98581.47;;;9.72;66.48
64853;BME280;56050;55.558;-4.644;2023-03-23T07:28:32;98587.50;;;9.76;66.48
64853;BME280;56050;55.558;-4.644;2023-03-23T07:30:58;98589.00;;;9.77;66.48
64853;BME280;56050;55.558;-4.644;2023-03-23T07:33:23;98592.31;;;9.81;66.60
64853;BME280;56050;55.558;-4.644;2023-03-23T07:35:49;98591.16;;;9.82;66.43
64853;BME280;56050;55.558;-4.644;2023-03-23T07:38:14;98595.34;;;9.83;66.35
64853;BME280;56050;55.558;-4.644;2023-03-23T07:40:40;98591.47;;;9.84;66.51
64853;BME280;56050;55.558;-4.644;2023-03-23T07:43:06;98593.72;;;9.85;66.59
64853;BME280;56050;55.558;-4.644;2023-03-23T07:45:32;98595.97;;;9.87;66.66
64853;BME280;56050;55.558;-4.644;2023-03-23T07:47:58;98586.72;;;9.88;66.41
64853;BME280;56050;55.558;-4.644;2023-03-23T07:50:24;98582.53;;;9.87;66.49
64853;BME280;56050;55.558;-4.644;2023-03-23T07:52:54;98589.06;;;9.86;66.57
64853;BME280;56050;55.558;-4.644;2023-03-23T07:55:20;98595.97;;;9.87;66.49
64853;BME280;56050;55.558;-4.644;2023-03-23T07:57:48;98601.34;;;9.87;66.50
64853;BME280;56050;55.558;-4.644;2023-03-23T08:00:16;98601.66;;;9.89;66.59
64853;BME280;56050;55.558;-4.644;2023-03-23T08:02:45;98602.00;;;9.91;66.49
64853;BME280;56050;55.558;-4.644;2023-03-23T08:05:10;98611.91;;;9.94;66.57
64853;BME280;56050;55.558;-4.644;2023-03-23T08:07:38;98599.06;;;9.98;66.69
64853;BME280;56050;55.558;-4.644;2023-03-23T08:10:05;98614.78;;;9.99;66.51
64853;BME280;56050;55.558;-4.644;2023-03-23T08:12:30;98615.53;;;10.00;66.60
64853;BME280;56050;55.558;-4.644;2023-03-23T08:14:56;98615.00;;;10.05;66.64
64853;BME280;56050;55.558;-4.644;2023-03-23T08:17:22;98613.69;;;10.10;66.55
64853;BME280;56050;55.558;-4.644;2023-03-23T08:19:47;98619.63;;;10.17;66.46
64853;BME280;56050;55.558;-4.644;2023-03-23T08:22:13;98624.13;;;10.20;66.42
64853;BME280;56050;55.558;-4.644;2023-03-23T08:24:38;98621.75;;;10.22;66.40
64853;BME280;56050;55.558;-4.644;2023-03-23T08:27:04;98616.72;;;10.24;66.46
64853;BME280;56050;55.558;-4.644;2023-03-23T08:29:31;98626.91;;;10.29;66.40
64853;BME280;56050;55.558;-4.644;2023-03-23T08:31:58;98622.16;;;10.33;66.45
64853;BME280;56050;55.558;-4.644;2023-03-23T08:34:23;98622.81;;;10.37;66.38
64853;BME280;56050;55.558;-4.644;2023-03-23T08:36:49;98625.03;;;10.39;66.43
64853;BME280;56050;55.558;-4.644;2023-03-23T08:39:17;98634.94;;;10.42;66.43
64853;BME280;56050;55.558;-4.644;2023-03-23T08:41:43;98638.69;;;10.44;66.43
64853;BME280;56050;55.558;-4.644;2023-03-23T08:44:10;98643.22;;;10.47;66.36
64853;BME280;56050;55.558;-4.644;2023-03-23T08:46:35;98642.78;;;10.49;66.24
64853;BME280;56050;55.558;-4.644;2023-03-23T08:49:01;98645.78;;;10.51;66.25
64853;BME280;56050;55.558;-4.644;2023-03-23T08:51:26;98649.88;;;10.55;66.35
64853;BME280;56050;55.558;-4.644;2023-03-23T08:53:52;98649.00;;;10.58;66.38
64853;BME280;56050;55.558;-4.644;2023-03-23T08:56:19;98650.06;;;10.61;66.32
64853;BME280;56050;55.558;-4.644;2023-03-23T08:58:44;98661.91;;;10.63;66.14
64853;BME280;56050;55.558;-4.644;2023-03-23T09:01:10;98661.47;;;10.65;66.18
64853;BME280;56050;55.558;-4.644;2023-03-23T09:03:36;98655.63;;;10.67;66.21
64853;BME280;56050;55.558;-4.644;2023-03-23T09:06:04;98657.25;;;10.64;66.21
64853;BME280;56050;55.558;-4.644;2023-03-23T09:08:31;98654.56;;;10.64;66.19
64853;BME280;56050;55.558;-4.644;2023-03-23T09:10:59;98660.72;;;10.65;66.22
64853;BME280;56050;55.558;-4.644;2023-03-23T09:13:25;98657.56;;;10.66;66.18
64853;BME280;56050;55.558;-4.644;2023-03-23T09:15:51;98659.84;;;10.68;66.13
64853;BME280;56050;55.558;-4.644;2023-03-23T09:18:18;98656.72;;;10.69;66.02
64853;BME280;56050;55.558;-4.644;2023-03-23T09:20:43;98660.47;;;10.72;66.10
64853;BME280;56050;55.558;-4.644;2023-03-23T09:23:09;98656.91;;;10.75;66.28
64853;BME280;56050;55.558;-4.644;2023-03-23T09:25:35;98655.59;;;10.79;66.14
64853;BME280;56050;55.558;-4.644;2023-03-23T09:28:01;98663.53;;;10.83;66.16
64853;BME280;56050;55.558;-4.644;2023-03-23T09:30:30;98668.94;;;10.83;66.04
64853;BME280;56050;55.558;-4.644;2023-03-23T09:32:56;98665.81;;;10.84;66.13
64853;BME280;56050;55.558;-4.644;2023-03-23T09:35:23;98670.34;;;10.87;66.11
64853;BME280;56050;55.558;-4.644;2023-03-23T09:37:51;98659.88;;;10.89;65.97
64853;BME280;56050;55.558;-4.644;2023-03-23T09:40:22;98657.06;;;10.93;65.96
64853;BME280;56050;55.558;-4.644;2023-03-23T09:43:01;98662.28;;;10.96;66.06
64853;BME280;56050;55.558;-4.644;2023-03-23T09:45:48;98666.38;;;11.01;65.88
64853;BME280;56050;55.558;-4.644;2023-03-23T09:53:40;98651.03;;;11.10;65.89
64853;BME280;56050;55.558;-4.644;2023-03-23T09:56:13;98657.34;;;11.16;65.87
64853;BME280;56050;55.558;-4.644;2023-03-23T10:06:34;98653.16;;;11.37;65.55
64853;BME280;56050;55.558;-4.644;2023-03-23T10:09:03;98653.00;;;11.41;65.48
64853;BME280;56050;55.558;-4.644;2023-03-23T10:14:20;98652.91;;;11.53;65.49
64853;BME280;56050;55.558;-4.644;2023-03-23T10:17:22;98664.47;;;11.63;65.51
64853;BME280;56050;55.558;-4.644;2023-03-23T10:22:33;98659.78;;;11.76;65.22
64853;BME280;56050;55.558;-4.644;2023-03-23T10:32:51;98681.56;;;11.91;65.28
64853;BME280;56050;55.558;-4.644;2023-03-23T10:35:24;98669.88;;;11.94;65.08
64853;BME280;56050;55.558;-4.644;2023-03-23T10:37:59;98667.94;;;11.94;65.09
64853;BME280;56050;55.558;-4.644;2023-03-23T10:40:28;98668.69;;;11.95;65.05
64853;BME280;56050;55.558;-4.644;2023-03-23T10:42:55;98662.72;;;12.00;65.20
64853;BME280;56050;55.558;-4.644;2023-03-23T10:45:26;98672.03;;;12.08;65.17
64853;BME280;56050;55.558;-4.644;2023-03-23T10:48:01;98670.25;;;12.14;65.09
64853;BME280;56050;55.558;-4.644;2023-03-23T10:50:32;98671.00;;;12.23;64.73
64853;BME280;56050;55.558;-4.644;2023-03-23T10:53:00;98666.22;;;12.27;64.74
64853;BME280;56050;55.558;-4.644;2023-03-23T10:55:38;98679.91;;;12.33;64.92
64853;BME280;56050;55.558;-4.644;2023-03-23T10:58:10;98676.91;;;12.40;64.76
64853;BME280;56050;55.558;-4.644;2023-03-23T11:00:46;98681.72;;;12.45;64.82
64853;BME280;56050;55.558;-4.644;2023-03-23T11:05:48;98688.63;;;12.55;64.57
64853;BME280;56050;55.558;-4.644;2023-03-23T11:08:37;98684.56;;;12.60;64.63
64853;BME280;56050;55.558;-4.644;2023-03-23T11:11:38;98681.28;;;12.65;64.61
64853;BME280;56050;55.558;-4.644;2023-03-23T11:14:47;98681.88;;;12.69;64.47
64853;BME280;56050;55.558;-4.644;2023-03-23T11:16:54;98681.44;;;12.70;64.38
64853;BME280;56050;55.558;-4.644;2023-03-23T11:19:34;98678.28;;;12.72;64.24
64853;BME280;56050;55.558;-4.644;2023-03-23T11:24:32;98680.69;;;12.79;64.21
64853;BME280;56050;55.558;-4.644;2023-03-23T11:26:59;98677.84;;;12.82;64.21
64853;BME280;56050;55.558;-4.644;2023-03-23T11:29:27;98680.84;;;12.93;64.13
64853;BME280;56050;55.558;-4.644;2023-03-23T11:32:06;98675.72;;;13.05;64.09
64853;BME280;56050;55.558;-4.644;2023-03-23T11:34:40;98674.84;;;13.17;63.92
64853;BME280;56050;55.558;-4.644;2023-03-23T11:37:13;98678.75;;;13.25;63.76
64853;BME280;56050;55.558;-4.644;2023-03-23T11:40:00;98688.19;;;13.29;63.78
64853;BME280;56050;55.558;-4.644;2023-03-23T11:50:35;98682.50;;;13.27;63.33
64853;BME280;56050;55.558;-4.644;2023-03-23T11:55:51;98673.47;;;13.30;63.23
64853;BME280;56050;55.558;-4.644;2023-03-23T11:58:19;98663.69;;;13.33;63.39
64853;BME280;56050;55.558;-4.644;2023-03-23T12:00:55;98660.84;;;13.36;63.12
64853;BME280;56050;55.558;-4.644;2023-03-23T12:03:23;98663.38;;;13.40;63.15
64853;BME280;56050;55.558;-4.644;2023-03-23T12:06:05;98671.81;;;13.42;62.96
64853;BME280;56050;55.558;-4.644;2023-03-23T12:33:43;98664.22;;;13.64;62.87
64853;BME280;56050;55.558;-4.644;2023-03-23T12:42:06;98657.84;;;13.76;62.27
64853;BME280;56050;55.558;-4.644;2023-03-23T12:44:50;98658.75;;;13.73;62.12
64853;BME280;56050;55.558;-4.644;2023-03-23T12:52:51;98651.28;;;13.59;61.15
64853;BME280;56050;55.558;-4.644;2023-03-23T12:55:27;98657.16;;;13.58;61.61
64853;BME280;56050;55.558;-4.644;2023-03-23T12:58:08;98661.38;;;13.59;61.26
64853;BME280;56050;55.558;-4.644;2023-03-23T13:11:39;98653.28;;;13.91;61.51
64853;BME280;56050;55.558;-4.644;2023-03-23T13:24:18;98636.97;;;14.33;60.57
64853;BME280;56050;55.558;-4.644;2023-03-23T13:26:49;98640.88;;;14.32;60.64
64853;BME280;56050;55.558;-4.644;2023-03-23T13:29:18;98635.00;;;14.34;60.57
64853;BME280;56050;55.558;-4.644;2023-03-23T13:31:46;98631.22;;;14.31;60.42
64853;BME280;56050;55.558;-4.644;2023-03-23T13:34:31;98628.41;;;14.26;60.46
64853;BME280;56050;55.558;-4.644;2023-03-23T13:42:36;98616.13;;;14.16;60.21
64853;BME280;56050;55.558;-4.644;2023-03-23T13:45:18;98611.75;;;14.18;60.23
64853;BME280;56050;55.558;-4.644;2023-03-23T13:47:44;98617.44;;;14.20;60.08
64853;BME280;56050;55.558;-4.644;2023-03-23T13:50:27;98603.28;;;14.25;60.06
64853;BME280;56050;55.558;-4.644;2023-03-23T13:53:00;98592.53;;;14.31;59.76
64853;BME280;56050;55.558;-4.644;2023-03-23T14:03:25;98587.47;;;14.33;59.25
64853;BME280;56050;55.558;-4.644;2023-03-23T14:13:30;98571.81;;;14.28;59.04
64853;BME280;56050;55.558;-4.644;2023-03-23T14:16:02;98576.63;;;14.33;59.14
64853;BME280;56050;55.558;-4.644;2023-03-23T14:18:37;98565.78;;;14.33;58.86
64853;BME280;56050;55.558;-4.644;2023-03-23T14:21:04;98569.72;;;14.32;58.97
64853;BME280;56050;55.558;-4.644;2023-03-23T14:23:32;98577.53;;;14.30;58.83
64853;BME280;56050;55.558;-4.644;2023-03-23T14:26:06;98564.63;;;14.25;58.62
64853;BME280;56050;55.558;-4.644;2023-03-23T14:28:40;98559.81;;;14.20;58.50
64853;BME280;56050;55.558;-4.644;2023-03-23T14:31:20;98564.41;;;14.13;58.54
64853;BME280;56050;55.558;-4.644;2023-03-23T14:33:47;98557.97;;;14.11;58.75
64853;BME280;56050;55.558;-4.644;2023-03-23T14:36:14;98560.66;;;14.11;58.73
64853;BME280;56050;55.558;-4.644;2023-03-23T14:38:44;98553.56;;;14.13;58.56
64853;BME280;56050;55.558;-4.644;2023-03-23T14:41:11;98560.03;;;14.16;58.57
64853;BME280;56050;55.558;-4.644;2023-03-23T14:43:37;98560.94;;;14.13;58.46
64853;BME280;56050;55.558;-4.644;2023-03-23T14:46:07;98571.94;;;14.09;58.58
64853;BME280;56050;55.558;-4.644;2023-03-23T14:48:33;98561.13;;;14.09;58.33
64853;BME280;56050;55.558;-4.644;2023-03-23T14:51:02;98556.28;;;14.13;58.45
64853;BME280;56050;55.558;-4.644;2023-03-23T14:53:33;98558.50;;;14.15;58.54
64853;BME280;56050;55.558;-4.644;2023-03-23T14:56:03;98558.25;;;14.13;58.33
64853;BME280;56050;55.558;-4.644;2023-03-23T14:58:30;98553.00;;;14.09;58.01
64853;BME280;56050;55.558;-4.644;2023-03-23T15:01:08;98562.03;;;14.06;58.19
64853;BME280;56050;55.558;-4.644;2023-03-23T15:03:38;98554.19;;;14.08;58.04
64853;BME280;56050;55.558;-4.644;2023-03-23T15:06:12;98551.47;;;14.08;57.92
64853;BME280;56050;55.558;-4.644;2023-03-23T15:08:38;98542.16;;;14.09;57.93
64853;BME280;56050;55.558;-4.644;2023-03-23T15:13:30;98540.97;;;14.10;57.59
64853;BME280;56050;55.558;-4.644;2023-03-23T15:16:07;98545.47;;;14.13;57.34
64853;BME280;56050;55.558;-4.644;2023-03-23T15:18:39;98532.94;;;14.16;57.00
64853;BME280;56050;55.558;-4.644;2023-03-23T15:21:21;98536.41;;;14.17;57.46
64853;BME280;56050;55.558;-4.644;2023-03-23T15:23:47;98531.28;;;14.19;57.39
64853;BME280;56050;55.558;-4.644;2023-03-23T15:26:28;98524.06;;;14.16;57.13
64853;BME280;56050;55.558;-4.644;2023-03-23T15:31:43;98511.47;;;14.12;56.94
64853;BME280;56050;55.558;-4.644;2023-03-23T15:34:15;98516.13;;;14.12;57.38
64853;BME280;56050;55.558;-4.644;2023-03-23T15:36:41;98519.84;;;14.14;57.17